createdAt,value
2023-02-19T00:03:12.160Z,101559.38
2023-02-19T00:08:20.959Z,101551.66
2023-02-19T00:13:24.897Z,101550.66
2023-02-19T00:18:31.109Z,101547.09
2023-02-19T00:23:35.552Z,101539.31
2023-02-19T00:28:37.261Z,101549.63
2023-02-19T00:33:40.088Z,101540.09
2023-02-19T00:38:43.170Z,101539.13
2023-02-19T00:43:59.841Z,101553.69
2023-02-19T00:49:02.730Z,101544.13
2023-02-19T00:54:11.174Z,101532.91
2023-02-19T00:59:13.546Z,101544.03
2023-02-19T01:04:16.431Z,101547.44
2023-02-19T01:09:17.941Z,101553.47
2023-02-19T01:14:19.407Z,101540.63
2023-02-19T01:19:23.790Z,101545.00
2023-02-19T01:24:25.227Z,101552.69
2023-02-19T01:29:26.641Z,101563.00
2023-02-19T01:34:30.410Z,101564.75
2023-02-19T01:39:31.989Z,101563.88
2023-02-19T01:44:33.308Z,101570.69
2023-02-19T01:49:48.705Z,101570.50
2023-02-19T01:54:50.605Z,101583.16
2023-02-19T01:59:56.188Z,101575.28
2023-02-19T02:05:00.257Z,101577.75
2023-02-19T02:10:20.171Z,101574.31
2023-02-19T02:15:24.298Z,101581.06
2023-02-19T02:20:41.737Z,101575.00
2023-02-19T02:25:52.045Z,101577.53
2023-02-19T02:30:57.779Z,101575.75
2023-02-19T02:36:06.003Z,101573.19
2023-02-19T02:41:08.753Z,101571.50
2023-02-19T02:46:12.121Z,101569.63
2023-02-19T02:51:21.006Z,101578.25
2023-02-19T02:56:25.133Z,101583.38
2023-02-19T03:01:53.874Z,101588.50
2023-02-19T03:06:57.719Z,101589.28
2023-02-19T03:12:21.878Z,101590.94
2023-02-19T03:18:11.488Z,101601.44
2023-02-19T03:23:14.819Z,101608.34
2023-02-19T03:28:40.886Z,101602.25
2023-02-19T03:33:45.894Z,101604.09
2023-02-19T03:39:00.342Z,101611.91
2023-02-19T03:44:35.250Z,101620.47
2023-02-19T03:49:57.218Z,101617.91
2023-02-19T03:55:12.299Z,101619.69
2023-02-19T04:00:18.023Z,101633.59
2023-02-19T04:05:24.650Z,101637.69
2023-02-19T04:10:26.463Z,101649.69
2023-02-19T04:15:33.568Z,101653.16
2023-02-19T04:20:41.224Z,101658.22
2023-02-19T04:25:45.472Z,101662.44
2023-02-19T04:30:47.082Z,101668.44
2023-02-19T04:35:48.537Z,101671.88
2023-02-19T04:40:51.474Z,101675.38
2023-02-19T04:45:53.010Z,101691.69
2023-02-19T04:50:54.554Z,101707.09
2023-02-19T04:55:56.004Z,101714.69
2023-02-19T05:00:57.390Z,101720.72
2023-02-19T05:06:02.897Z,101729.59
2023-02-19T05:11:06.531Z,101744.22
2023-02-19T05:16:13.873Z,101741.53
2023-02-19T05:21:15.752Z,101745.81
2023-02-19T05:26:22.305Z,101749.19
2023-02-19T05:31:24.715Z,101753.47
2023-02-19T05:36:26.223Z,101765.50
2023-02-19T05:41:29.489Z,101767.19
2023-02-19T05:46:31.382Z,101757.81
2023-02-19T05:51:32.952Z,101765.44
2023-02-19T05:56:39.691Z,101767.19
2023-02-19T06:01:41.080Z,101782.66
2023-02-19T06:06:43.084Z,101783.34
2023-02-19T06:11:45.021Z,101803.06
2023-02-19T06:16:46.508Z,101793.69
2023-02-19T06:21:50.375Z,101809.16
2023-02-19T06:26:51.868Z,101823.50
2023-02-19T06:31:53.349Z,101841.69
2023-02-19T06:36:55.016Z,101839.97
2023-02-19T06:41:57.286Z,101839.00
2023-02-19T06:46:58.766Z,101843.25
2023-02-19T06:52:00.624Z,101852.72
2023-02-19T06:57:02.067Z,101862.91
2023-02-19T07:02:03.478Z,101867.06
2023-02-19T07:07:05.296Z,101882.13
2023-02-19T07:12:06.921Z,101886.94
2023-02-19T07:17:08.374Z,101896.31
2023-02-19T07:22:09.849Z,101900.50
2023-02-19T07:27:11.355Z,101921.03
2023-02-19T07:32:12.893Z,101930.41
2023-02-19T07:37:14.442Z,101939.75
2023-02-19T07:42:16.113Z,101946.59
2023-02-19T07:47:17.560Z,101957.06
2023-02-19T07:52:19.046Z,101950.25
2023-02-19T07:57:20.481Z,101945.03
2023-02-19T08:02:40.691Z,101967.63
2023-02-19T08:07:42.176Z,101963.56
2023-02-19T08:13:02.187Z,101968.91
2023-02-19T08:18:03.803Z,101989.38
2023-02-19T08:23:05.592Z,101994.69
2023-02-19T08:28:08.564Z,101994.25
2023-02-19T08:33:11.576Z,102005.44
2023-02-19T08:38:16.273Z,102007.88
2023-02-19T08:43:19.266Z,102017.44
2023-02-19T08:48:20.906Z,102025.59
2023-02-19T08:53:23.267Z,102037.53
2023-02-19T08:58:26.279Z,102039.63
2023-02-19T09:03:27.774Z,102042.81
2023-02-19T09:08:29.180Z,102041.94
2023-02-19T09:13:31.288Z,102033.72
2023-02-19T09:18:32.899Z,102044.28
2023-02-19T09:23:35.876Z,102066.53
2023-02-19T09:28:39.665Z,102073.53
2023-02-19T09:33:45.616Z,102075.97
2023-02-19T09:38:47.116Z,102088.50
2023-02-19T09:43:48.756Z,102108.22
2023-02-19T09:48:53.096Z,102114.00
2023-02-19T09:53:56.651Z,102124.97
2023-02-19T09:58:59.972Z,102134.63
2023-02-19T10:04:01.449Z,102151.44
2023-02-19T10:09:14.917Z,102167.41
2023-02-19T10:14:29.833Z,102172.03
2023-02-19T10:19:33.231Z,102175.59
2023-02-19T10:24:35.909Z,102190.13
2023-02-19T10:29:39.133Z,102208.25
2023-02-19T10:34:40.581Z,102209.88
2023-02-19T10:39:48.890Z,102224.34
2023-02-19T10:45:01.797Z,102224.69
2023-02-19T10:50:04.800Z,102221.56
2023-02-19T10:55:22.004Z,102230.25
2023-02-19T11:00:30.124Z,102235.16
2023-02-19T11:05:31.693Z,102224.28
2023-02-19T11:10:42.311Z,102198.84
2023-02-19T11:15:52.678Z,102184.69
2023-02-19T11:21:00.691Z,102198.44
2023-02-19T11:26:08.406Z,102191.38
2023-02-19T11:31:29.516Z,102194.44
2023-02-19T11:36:38.197Z,102207.44
2023-02-19T11:41:55.808Z,102211.03
2023-02-19T11:47:27.648Z,102223.47
2023-02-19T11:52:29.308Z,102230.41
2023-02-19T11:57:58.275Z,102228.66
2023-02-19T12:03:23.210Z,102231.09
2023-02-19T12:08:50.564Z,102218.59
2023-02-19T12:14:29.841Z,102236.63
2023-02-19T12:19:50.384Z,102235.94
2023-02-19T12:24:54.356Z,102229.78
2023-02-19T12:30:00.210Z,102234.63
2023-02-19T12:35:13.695Z,102240.91
2023-02-19T12:40:24.286Z,102238.69
2023-02-19T12:45:45.871Z,102242.13
2023-02-19T12:50:55.660Z,102256.72
2023-02-19T12:56:00.968Z,102253.59
2023-02-19T13:01:04.027Z,102259.00
2023-02-19T13:06:32.220Z,102267.81
2023-02-19T13:11:49.168Z,102275.22
2023-02-19T13:16:56.538Z,102279.53
2023-02-19T13:22:32.314Z,102294.56
2023-02-19T13:27:57.905Z,102302.88
2023-02-19T13:33:22.399Z,102309.94
2023-02-19T13:38:24.194Z,102321.88
2023-02-19T13:43:35.494Z,102330.09
2023-02-19T13:48:40.386Z,102330.34
2023-02-19T13:53:53.956Z,102319.94
2023-02-19T13:59:13.994Z,102343.50
2023-02-19T14:04:40.056Z,102344.41
2023-02-19T14:09:44.006Z,102352.53
2023-02-19T14:14:51.666Z,102363.06
2023-02-19T14:19:59.347Z,102371.16
2023-02-19T14:25:02.926Z,102380.97
2023-02-19T14:30:05.160Z,102381.03
2023-02-19T14:35:07.394Z,102363.44
2023-02-19T14:40:24.189Z,102367.44
2023-02-19T14:45:28.042Z,102360.88
2023-02-19T14:50:31.944Z,102342.00
2023-02-19T14:55:39.498Z,102326.94
2023-02-19T15:00:46.118Z,102312.72
2023-02-19T15:05:49.173Z,102315.75
2023-02-19T15:10:50.734Z,102309.72
2023-02-19T15:15:53.574Z,102308.00
2023-02-19T15:21:03.952Z,102300.13
2023-02-19T15:26:20.413Z,102328.75
2023-02-19T15:31:26.521Z,102329.63
2023-02-19T15:36:33.001Z,102340.47
2023-02-19T15:41:35.162Z,102362.75
2023-02-19T15:46:37.630Z,102362.19
2023-02-19T15:52:07.094Z,102364.03
2023-02-19T15:57:17.543Z,102370.16
2023-02-19T16:02:22.243Z,102372.34
2023-02-19T16:07:27.227Z,102369.44
2023-02-19T16:12:31.292Z,102377.34
2023-02-19T16:17:33.932Z,102376.81
2023-02-19T16:22:44.053Z,102414.22
2023-02-19T16:27:45.799Z,102414.13
2023-02-19T16:32:49.430Z,102415.91
2023-02-19T16:37:59.126Z,102429.00
2023-02-19T16:43:25.596Z,102429.00
2023-02-19T16:48:28.459Z,102424.34
2023-02-19T16:53:31.134Z,102424.34
2023-02-19T16:58:33.980Z,102433.09
2023-02-19T17:03:43.166Z,102447.97
2023-02-19T17:08:44.994Z,102441.75
2023-02-19T17:13:47.122Z,102438.69
2023-02-19T17:18:49.517Z,102436.09
2023-02-19T17:23:52.133Z,102441.25
2023-02-19T17:29:08.913Z,102450.34
2023-02-19T17:34:10.748Z,102448.16
2023-02-19T17:39:20.663Z,102456.56
2023-02-19T17:44:24.847Z,102449.47
2023-02-19T17:49:27.721Z,102456.81
2023-02-19T17:54:29.289Z,102469.75
2023-02-19T17:59:30.916Z,102475.69
2023-02-19T18:04:36.543Z,102491.66
2023-02-19T18:09:40.957Z,102487.84
2023-02-19T18:14:54.122Z,102486.66
2023-02-19T18:19:59.713Z,102485.78
2023-02-19T18:25:01.176Z,102481.63
2023-02-19T18:30:06.069Z,102478.69
2023-02-19T18:35:08.105Z,102468.50
2023-02-19T18:40:12.444Z,102473.88
2023-02-19T18:45:14.060Z,102464.13
2023-02-19T18:50:16.610Z,102467.75
2023-02-19T18:55:18.223Z,102469.78
2023-02-19T19:00:23.541Z,102483.41
2023-02-19T19:05:26.967Z,102482.22
2023-02-19T19:10:35.594Z,102491.91
2023-02-19T19:15:37.571Z,102477.03
2023-02-19T19:21:12.515Z,102476.34
2023-02-19T19:26:07.298Z,102482.84
2023-02-19T19:31:08.788Z,102477.84
2023-02-19T19:36:11.385Z,102485.72
2023-02-19T19:41:17.138Z,102489.56
2023-02-19T19:46:22.256Z,102496.09
2023-02-19T19:51:27.301Z,102510.28
2023-02-19T19:56:29.060Z,102497.75
2023-02-19T20:01:40.223Z,102506.91
2023-02-19T20:06:42.355Z,102498.53
2023-02-19T20:11:54.094Z,102502.88
2023-02-19T20:16:55.803Z,102504.34
2023-02-19T20:21:57.284Z,102496.44
2023-02-19T20:27:02.095Z,102495.16
2023-02-19T20:32:04.380Z,102487.47
2023-02-19T20:37:07.044Z,102478.88
2023-02-19T20:42:09.622Z,102477.69
2023-02-19T20:47:13.867Z,102500.66
2023-02-19T20:52:17.120Z,102499.56
2023-02-19T20:57:18.574Z,102491.94
2023-02-19T21:02:25.007Z,102503.75
2023-02-19T21:07:37.536Z,102497.91
2023-02-19T21:12:39.094Z,102486.56
2023-02-19T21:17:47.857Z,102481.16
2023-02-19T21:22:49.500Z,102475.81
2023-02-19T21:27:51.977Z,102458.78
2023-02-19T21:32:53.579Z,102466.84
2023-02-19T21:37:58.318Z,102471.72
2023-02-19T21:43:01.420Z,102471.44
2023-02-19T21:48:03.070Z,102470.75
2023-02-19T21:53:06.185Z,102481.69
2023-02-19T21:58:07.671Z,102480.91
2023-02-19T22:03:15.072Z,102480.28
2023-02-19T22:08:19.754Z,102478.34
2023-02-19T22:13:22.864Z,102466.00
2023-02-19T22:18:25.884Z,102480.66
2023-02-19T22:23:27.356Z,102472.09
2023-02-19T22:28:28.961Z,102471.44
2023-02-19T22:33:30.685Z,102468.44
2023-02-19T22:38:33.277Z,102461.34
2023-02-19T22:43:34.907Z,102452.97
2023-02-19T22:48:36.374Z,102455.34
2023-02-19T22:53:37.853Z,102446.78
2023-02-19T22:58:41.314Z,102447.66
2023-02-19T23:03:50.432Z,102454.47
2023-02-19T23:08:53.621Z,102442.13
2023-02-19T23:13:55.654Z,102434.09
2023-02-19T23:18:57.204Z,102426.72
2023-02-19T23:23:59.414Z,102409.81
2023-02-19T23:29:01.497Z,102414.22
2023-02-19T23:34:03.848Z,102414.88
2023-02-19T23:39:05.334Z,102416.59
2023-02-19T23:44:06.754Z,102431.56
2023-02-19T23:49:08.561Z,102430.66
2023-02-19T23:54:10.994Z,102431.66
2023-02-19T23:59:12.697Z,102422.97
